Time;durP1;ratioP1;P1;durP2;ratioP2;P2;SDS_P1;SDS_P2;PMS_P1;PMS_P2;Temp;Humidity;BMP_temperature;BMP_pressure;BME280_temperature;BME280_humidity;BME280_pressure;Samples;Min_cycle;Max_cycle;Signal;HPM_P1;HPM_P2
2023/11/23 00:00:12;;;;;;;10.38;5.50;;;10.30;99.90;;;;;;4971823;28;20018;-78
2023/11/23 00:02:38;;;;;;;10.23;5.63;;;10.30;99.90;;;;;;4971560;28;20035;-78
2023/11/23 00:05:05;;;;;;;8.68;5.45;;;10.30;99.90;;;;;;4971971;28;20038;-78
2023/11/23 00:07:32;;;;;;;6.70;5.03;;;10.30;99.90;;;;;;4975476;28;20178;-76
2023/11/23 00:09:57;;;;;;;8.90;5.00;;;10.40;99.90;;;;;;4971069;28;20055;-78
2023/11/23 00:12:23;;;;;;;9.38;4.93;;;10.30;99.90;;;;;;4971877;28;20620;-78
2023/11/23 00:14:49;;;;;;;10.00;5.65;;;10.30;99.90;;;;;;4971684;28;20027;-77
2023/11/23 00:17:15;;;;;;;10.35;5.30;;;10.30;99.90;;;;;;4970024;28;20679;-78
2023/11/23 00:19:41;;;;;;;9.40;5.47;;;10.30;99.90;;;;;;4971813;28;20054;-78
2023/11/23 00:22:06;;;;;;;9.18;4.85;;;10.30;99.90;;;;;;4971445;28;20057;-78
2023/11/23 00:24:32;;;;;;;7.75;5.45;;;10.30;99.90;;;;;;4971054;28;20035;-78
2023/11/23 00:26:58;;;;;;;7.45;4.90;;;10.30;99.90;;;;;;4971267;28;20026;-78
2023/11/23 00:29:23;;;;;;;9.52;5.53;;;10.40;99.90;;;;;;4968269;28;20030;-78
2023/11/23 00:31:49;;;;;;;9.48;4.97;;;10.40;99.90;;;;;;4970579;28;20025;-78
2023/11/23 00:34:15;;;;;;;9.70;6.18;;;10.30;99.90;;;;;;4969991;28;20137;-78
2023/11/23 00:36:40;;;;;;;9.05;5.55;;;10.40;99.90;;;;;;4969436;28;20027;-78
2023/11/23 00:39:09;;;;;;;10.82;6.35;;;10.40;99.90;;;;;;4969726;28;20030;-78
2023/11/23 00:41:36;;;;;;;8.05;5.50;;;10.40;99.90;;;;;;4969182;28;20162;-78
2023/11/23 00:44:02;;;;;;;8.98;5.35;;;10.40;99.90;;;;;;4970301;28;20026;-78
2023/11/23 00:46:28;;;;;;;11.73;6.85;;;10.40;99.90;;;;;;4970192;28;20448;-78
2023/11/23 00:48:54;;;;;;;8.77;5.13;;;10.40;99.90;;;;;;4972014;28;20085;-78
2023/11/23 00:51:20;;;;;;;11.52;5.43;;;10.40;99.90;;;;;;4970515;28;20489;-78
2023/11/23 00:53:46;;;;;;;10.68;6.40;;;10.30;99.90;;;;;;4970532;28;20106;-78
2023/11/23 00:56:12;;;;;;;9.00;5.25;;;10.40;99.90;;;;;;4967558;28;20122;-78
2023/11/23 00:58:38;;;;;;;9.35;5.53;;;10.30;99.90;;;;;;4973252;28;20619;-78
2023/11/23 01:01:03;;;;;;;10.60;5.80;;;10.30;99.90;;;;;;4969421;28;20038;-78
2023/11/23 01:03:31;;;;;;;9.82;5.57;;;10.30;99.90;;;;;;4970560;28;21463;-78
2023/11/23 01:05:56;;;;;;;14.23;6.82;;;10.30;99.90;;;;;;4970585;28;20022;-78
2023/11/23 01:08:22;;;;;;;12.50;6.72;;;10.30;99.90;;;;;;4970171;28;20451;-78
2023/11/23 01:10:47;;;;;;;10.88;6.43;;;10.30;99.90;;;;;;4973472;28;20373;-78
2023/11/23 01:13:13;;;;;;;11.57;6.28;;;10.30;99.90;;;;;;4970723;28;20019;-78
2023/11/23 01:15:38;;;;;;;11.38;5.70;;;10.30;99.90;;;;;;4970848;28;20019;-78
2023/11/23 01:18:04;;;;;;;11.85;6.85;;;10.30;99.90;;;;;;4969078;28;20023;-78
2023/11/23 01:20:30;;;;;;;13.48;6.32;;;10.40;99.90;;;;;;4972395;28;20019;-78
2023/11/23 01:22:56;;;;;;;13.07;6.57;;;10.30;99.90;;;;;;4970550;28;20030;-78
2023/11/23 01:25:21;;;;;;;21.40;7.18;;;10.30;99.90;;;;;;4970347;28;20023;-78
2023/11/23 01:27:47;;;;;;;11.20;6.32;;;10.30;99.90;;;;;;4970593;28;20034;-78
2023/11/23 01:30:12;;;;;;;9.90;6.25;;;10.30;99.90;;;;;;4970099;28;20053;-78
2023/11/23 01:32:38;;;;;;;9.15;5.85;;;10.30;99.90;;;;;;4970518;28;20416;-78
2023/11/23 01:35:04;;;;;;;12.30;6.07;;;10.30;99.90;;;;;;4970044;28;20045;-78
2023/11/23 01:37:30;;;;;;;11.38;6.55;;;10.40;99.90;;;;;;4967859;28;20054;-77
2023/11/23 01:39:56;;;;;;;10.80;6.18;;;10.30;99.90;;;;;;4970654;28;20058;-78
2023/11/23 01:42:21;;;;;;;17.20;7.03;;;10.30;99.90;;;;;;4969957;28;20027;-78
2023/11/23 01:44:47;;;;;;;18.10;6.75;;;10.30;99.90;;;;;;4970143;28;20027;-78
2023/11/23 01:47:13;;;;;;;17.75;7.35;;;10.30;99.90;;;;;;4970302;28;20037;-78
2023/11/23 01:49:45;;;;;;;12.30;6.95;;;10.30;99.90;;;;;;4970227;28;20030;-78
2023/11/23 01:52:11;;;;;;;14.13;7.80;;;10.30;99.90;;;;;;4966322;28;20019;-78
2023/11/23 01:54:37;;;;;;;13.45;7.05;;;10.30;99.90;;;;;;4970118;28;20864;-78
2023/11/23 01:57:04;;;;;;;11.43;7.30;;;10.30;99.90;;;;;;4970067;28;20031;-78
2023/11/23 01:59:31;;;;;;;12.23;6.63;;;10.30;99.90;;;;;;4970205;28;20023;-78
2023/11/23 02:01:56;;;;;;;12.85;7.20;;;10.30;99.90;;;;;;4969660;28;20044;-78
2023/11/23 02:04:23;;;;;;;11.23;6.90;;;10.30;99.90;;;;;;4969152;28;20026;-78
2023/11/23 02:06:48;;;;;;;11.25;7.32;;;10.30;99.90;;;;;;4968384;28;20030;-78
2023/11/23 02:09:14;;;;;;;11.55;7.38;;;10.30;99.90;;;;;;4968824;28;20407;-78
2023/11/23 02:11:40;;;;;;;13.30;7.38;;;10.30;99.90;;;;;;4973203;28;20077;-78
2023/11/23 02:14:07;;;;;;;12.60;7.45;;;10.30;99.90;;;;;;4972519;28;20046;-78
2023/11/23 02:16:33;;;;;;;13.25;7.88;;;10.30;99.90;;;;;;4968790;28;20033;-78
2023/11/23 02:18:58;;;;;;;11.95;7.18;;;10.30;99.90;;;;;;4969209;28;20062;-78
2023/11/23 02:21:24;;;;;;;16.23;7.10;;;10.30;99.90;;;;;;4973483;28;20035;-78
2023/11/23 02:23:50;;;;;;;17.58;8.35;;;10.30;99.90;;;;;;4977323;28;20027;-78
2023/11/23 02:26:16;;;;;;;11.75;7.32;;;10.30;99.90;;;;;;4975068;28;20054;-78
2023/11/23 02:28:41;;;;;;;14.32;7.03;;;10.30;99.90;;;;;;4973693;28;20018;-78
2023/11/23 02:31:07;;;;;;;14.82;7.38;;;10.30;99.90;;;;;;4973558;28;20046;-78
2023/11/23 02:33:33;;;;;;;14.32;7.82;;;10.30;99.90;;;;;;4971548;28;20077;-78
2023/11/23 02:35:58;;;;;;;13.48;7.63;;;10.30;99.90;;;;;;4973024;28;20027;-78
2023/11/23 02:38:24;;;;;;;13.80;7.07;;;10.30;99.90;;;;;;4969807;28;20054;-78
2023/11/23 02:40:49;;;;;;;14.05;8.00;;;10.30;99.90;;;;;;4974332;28;20062;-78
2023/11/23 02:43:15;;;;;;;13.45;7.43;;;10.30;99.90;;;;;;4968956;28;20031;-78
2023/11/23 02:45:41;;;;;;;13.95;7.20;;;10.30;99.90;;;;;;4971931;28;20026;-78
2023/11/23 02:48:07;;;;;;;11.70;7.80;;;10.30;99.90;;;;;;4972099;28;20023;-78
2023/11/23 02:50:33;;;;;;;12.65;7.35;;;10.30;99.90;;;;;;4971784;28;20031;-78
2023/11/23 02:53:01;;;;;;;12.15;6.95;;;10.30;99.90;;;;;;4971077;28;20488;-77
2023/11/23 02:55:26;;;;;;;15.13;7.60;;;10.30;99.90;;;;;;4973267;28;20026;-78
2023/11/23 02:57:52;;;;;;;14.52;7.13;;;10.20;99.90;;;;;;4971711;28;20022;-78
2023/11/23 03:00:18;;;;;;;18.13;8.07;;;10.20;99.90;;;;;;4973088;28;20496;-78
2023/11/23 03:02:43;;;;;;;11.80;7.15;;;10.30;99.90;;;;;;4972702;28;20194;-77
2023/11/23 03:05:10;;;;;;;15.95;7.68;;;10.30;99.90;;;;;;4972830;28;20027;-78
2023/11/23 03:07:36;;;;;;;12.73;6.78;;;10.20;99.90;;;;;;4971760;28;20027;-78
2023/11/23 03:10:01;;;;;;;13.35;8.18;;;10.20;99.90;;;;;;4971183;28;20415;-78
2023/11/23 03:12:28;;;;;;;12.88;7.28;;;10.30;99.90;;;;;;4972854;28;20519;-78
2023/11/23 03:14:55;;;;;;;14.02;7.70;;;10.20;99.90;;;;;;4972605;28;20023;-78
2023/11/23 03:17:22;;;;;;;13.40;7.88;;;10.20;99.90;;;;;;4972789;28;20050;-77
2023/11/23 03:19:48;;;;;;;14.10;7.32;;;10.20;99.90;;;;;;4967766;28;20027;-78
2023/11/23 03:22:14;;;;;;;10.60;7.32;;;10.20;99.90;;;;;;4971258;28;20547;-78
2023/11/23 03:24:39;;;;;;;15.50;7.65;;;10.20;99.90;;;;;;4972457;28;20026;-78
2023/11/23 03:27:05;;;;;;;19.58;7.70;;;10.20;99.90;;;;;;4974670;28;20519;-78
2023/11/23 03:29:31;;;;;;;15.07;7.40;;;10.20;99.90;;;;;;4971782;28;20085;-78
2023/11/23 03:31:56;;;;;;;14.80;7.45;;;10.20;99.90;;;;;;4971602;28;20025;-77
2023/11/23 03:34:22;;;;;;;15.38;8.27;;;10.20;99.90;;;;;;4970636;28;20038;-78
2023/11/23 03:36:47;;;;;;;13.45;7.50;;;10.20;99.90;;;;;;4971933;28;20102;-78
2023/11/23 03:39:13;;;;;;;11.48;6.90;;;10.20;99.90;;;;;;4971959;28;20050;-78
2023/11/23 03:41:38;;;;;;;16.52;7.18;;;10.20;99.90;;;;;;4971249;28;20031;-78
2023/11/23 03:44:04;;;;;;;12.23;7.53;;;10.20;99.90;;;;;;4972234;28;20035;-78
2023/11/23 03:46:30;;;;;;;14.38;7.85;;;10.20;99.90;;;;;;4973146;28;20027;-78
2023/11/23 03:48:58;;;;;;;14.30;7.80;;;10.20;99.90;;;;;;4971630;28;20516;-77
2023/11/23 03:51:24;;;;;;;16.60;7.68;;;10.30;99.90;;;;;;4972206;28;20027;-77
2023/11/23 03:53:50;;;;;;;14.02;6.93;;;10.20;99.90;;;;;;4968962;28;20019;-78
2023/11/23 03:56:15;;;;;;;14.48;8.02;;;10.20;99.90;;;;;;4972109;28;20093;-78
2023/11/23 03:58:42;;;;;;;18.35;7.85;;;10.20;99.90;;;;;;4970182;28;20118;-78
2023/11/23 04:01:09;;;;;;;12.95;7.68;;;10.20;99.90;;;;;;4970565;28;20026;-78
2023/11/23 04:03:35;;;;;;;14.38;7.55;;;10.20;99.90;;;;;;4971624;28;20101;-78
2023/11/23 04:06:00;;;;;;;12.52;6.93;;;10.20;99.90;;;;;;4972069;28;20022;-78
2023/11/23 04:08:26;;;;;;;12.35;7.30;;;10.20;99.90;;;;;;4970094;28;20050;-78
2023/11/23 04:10:51;;;;;;;14.02;7.85;;;10.20;99.90;;;;;;4969672;28;20018;-78
2023/11/23 04:13:17;;;;;;;11.23;7.28;;;10.20;99.90;;;;;;4970169;28;20085;-78
2023/11/23 04:15:42;;;;;;;13.75;8.02;;;10.20;99.90;;;;;;4971245;28;21351;-78
2023/11/23 04:18:08;;;;;;;16.15;7.55;;;10.20;99.90;;;;;;4972897;28;20019;-78
2023/11/23 04:20:35;;;;;;;14.52;7.80;;;10.20;99.90;;;;;;4971555;28;20027;-78
2023/11/23 04:23:01;;;;;;;12.80;7.45;;;10.20;99.90;;;;;;4969264;28;20026;-78
2023/11/23 04:25:27;;;;;;;14.43;7.82;;;10.20;99.90;;;;;;4970921;28;20046;-78
2023/11/23 04:27:54;;;;;;;15.90;8.18;;;10.20;99.90;;;;;;4971849;28;20508;-78
2023/11/23 04:30:20;;;;;;;14.48;7.40;;;10.20;99.90;;;;;;4970823;28;20029;-78
2023/11/23 04:32:46;;;;;;;12.23;7.22;;;10.20;99.90;;;;;;4969428;28;20030;-78
2023/11/23 04:35:11;;;;;;;14.13;7.78;;;10.20;99.90;;;;;;4969078;28;20031;-78
2023/11/23 04:37:37;;;;;;;12.65;7.53;;;10.20;99.90;;;;;;4969648;28;20376;-78
2023/11/23 04:40:06;;;;;;;12.80;7.63;;;10.20;99.90;;;;;;4974805;28;20395;-78
2023/11/23 04:42:33;;;;;;;11.38;7.53;;;10.20;99.90;;;;;;4970481;28;20026;-78
2023/11/23 04:44:58;;;;;;;12.70;7.32;;;10.20;99.90;;;;;;4970236;28;20070;-77
2023/11/23 04:47:24;;;;;;;13.10;7.25;;;10.20;99.90;;;;;;4969677;28;20042;-78
2023/11/23 04:49:49;;;;;;;11.82;7.88;;;10.10;99.90;;;;;;4960331;28;20033;-78
2023/11/23 04:52:15;;;;;;;13.45;7.63;;;10.10;99.90;;;;;;4971325;28;20702;-78
2023/11/23 04:54:40;;;;;;;15.23;7.13;;;10.10;99.90;;;;;;4970534;28;20369;-78
2023/11/23 04:57:06;;;;;;;19.05;7.60;;;10.10;99.90;;;;;;4969851;28;20495;-78
2023/11/23 04:59:31;;;;;;;14.05;7.88;;;10.10;99.90;;;;;;4968381;28;20022;-78
2023/11/23 05:01:57;;;;;;;14.63;8.27;;;10.10;99.90;;;;;;4970840;28;20030;-78
2023/11/23 05:04:23;;;;;;;13.30;7.97;;;10.10;99.90;;;;;;4969823;28;20403;-78
2023/11/23 05:06:48;;;;;;;13.65;7.80;;;10.10;99.90;;;;;;4971028;28;20448;-78
2023/11/23 05:09:14;;;;;;;13.30;7.80;;;10.10;99.90;;;;;;4968341;28;20038;-78
2023/11/23 05:11:39;;;;;;;13.85;7.82;;;10.10;99.90;;;;;;4965812;28;20119;-78
2023/11/23 05:14:08;;;;;;;13.85;7.45;;;10.10;99.90;;;;;;4968012;28;20055;-77
2023/11/23 05:16:34;;;;;;;11.05;6.93;;;10.10;99.90;;;;;;4970184;28;20031;-78
2023/11/23 05:19:01;;;;;;;12.63;7.55;;;10.10;99.90;;;;;;4970296;28;20043;-78
2023/11/23 05:21:27;;;;;;;12.10;7.32;;;10.10;99.90;;;;;;4971200;28;20022;-78
2023/11/23 05:23:53;;;;;;;14.70;8.18;;;10.10;99.90;;;;;;4966763;28;20026;-78
2023/11/23 05:26:19;;;;;;;15.52;7.70;;;10.10;99.90;;;;;;4968922;28;20015;-78
2023/11/23 05:28:44;;;;;;;12.35;7.75;;;10.10;99.90;;;;;;4972183;28;20031;-78
2023/11/23 05:31:10;;;;;;;12.90;7.40;;;10.10;99.90;;;;;;4971638;28;20022;-78
2023/11/23 05:33:37;;;;;;;17.55;8.18;;;10.10;99.90;;;;;;4966604;28;20023;-78
2023/11/23 05:36:03;;;;;;;17.30;8.18;;;10.10;99.90;;;;;;4965763;28;20015;-78
2023/11/23 05:38:29;;;;;;;16.15;7.70;;;10.10;99.90;;;;;;4969308;28;20038;-78
2023/11/23 05:40:54;;;;;;;13.25;7.22;;;10.10;99.90;;;;;;4969067;28;20035;-78
2023/11/23 05:43:21;;;;;;;14.27;8.02;;;10.00;99.90;;;;;;4970030;28;20027;-78
2023/11/23 05:45:46;;;;;;;15.07;7.63;;;10.00;99.90;;;;;;4970378;28;20027;-78
2023/11/23 05:48:12;;;;;;;14.73;7.35;;;10.00;99.90;;;;;;4966187;28;20405;-78
2023/11/23 05:50:37;;;;;;;15.98;8.00;;;10.00;99.90;;;;;;4964267;28;20046;-78
2023/11/23 05:53:03;;;;;;;12.70;7.32;;;10.00;99.90;;;;;;4969389;28;20499;-78
2023/11/23 05:55:28;;;;;;;13.35;7.82;;;10.00;99.90;;;;;;4974135;28;20090;-78
2023/11/23 05:57:54;;;;;;;12.73;7.35;;;10.00;99.90;;;;;;4973988;28;20027;-78
2023/11/23 06:00:21;;;;;;;14.88;7.57;;;10.00;99.90;;;;;;4972377;28;20041;-78
2023/11/23 06:02:47;;;;;;;13.57;7.38;;;10.00;99.90;;;;;;4971144;28;20037;-79
2023/11/23 06:05:14;;;;;;;12.93;7.53;;;10.00;99.90;;;;;;4972263;28;20030;-78
2023/11/23 06:07:40;;;;;;;12.25;7.32;;;10.10;99.90;;;;;;4974263;28;20026;-78
2023/11/23 06:10:06;;;;;;;12.40;7.38;;;10.00;99.90;;;;;;4973722;28;20377;-78
2023/11/23 06:12:32;;;;;;;16.17;7.72;;;10.00;99.90;;;;;;4971407;28;20030;-78
2023/11/23 06:14:57;;;;;;;14.98;7.38;;;10.00;99.90;;;;;;4969454;28;20507;-77
2023/11/23 06:17:23;;;;;;;11.38;6.78;;;10.00;99.90;;;;;;4968937;28;20024;-78
2023/11/23 06:19:49;;;;;;;12.70;7.47;;;10.00;99.90;;;;;;4972030;28;20030;-79
2023/11/23 06:22:14;;;;;;;11.88;6.90;;;10.00;99.90;;;;;;4973657;28;20069;-78
2023/11/23 06:24:40;;;;;;;16.55;8.27;;;10.00;99.90;;;;;;4971363;28;20057;-78
2023/11/23 06:27:05;;;;;;;14.73;6.88;;;10.00;99.90;;;;;;4969864;28;20030;-78
2023/11/23 06:29:31;;;;;;;13.68;7.20;;;10.00;99.90;;;;;;4971783;28;20030;-78
2023/11/23 06:31:56;;;;;;;11.25;7.10;;;10.00;99.90;;;;;;4972622;28;21287;-78
2023/11/23 06:34:22;;;;;;;12.15;7.30;;;10.00;99.90;;;;;;4971995;28;20023;-78
2023/11/23 06:36:49;;;;;;;12.90;7.57;;;10.00;99.90;;;;;;4971893;28;20019;-78
2023/11/23 06:39:23;;;;;;;14.18;7.50;;;10.00;99.90;;;;;;4969734;28;20031;-78
2023/11/23 06:41:51;;;;;;;15.00;7.40;;;10.00;99.90;;;;;;4969567;28;20034;-78
2023/11/23 06:44:17;;;;;;;13.48;7.93;;;10.00;99.90;;;;;;4972965;28;20022;-77
2023/11/23 06:46:43;;;;;;;15.63;7.68;;;10.00;99.90;;;;;;4970605;28;20041;-78
2023/11/23 06:49:09;;;;;;;16.95;7.32;;;10.00;99.90;;;;;;4971423;28;20037;-78
2023/11/23 06:51:34;;;;;;;12.48;7.68;;;10.00;99.90;;;;;;4969850;28;20033;-78
2023/11/23 06:54:00;;;;;;;17.80;7.88;;;9.90;99.90;;;;;;4970018;28;20019;-77
2023/11/23 06:56:25;;;;;;;15.45;8.57;;;10.00;99.90;;;;;;4967354;28;20035;-78
2023/11/23 06:58:52;;;;;;;15.00;7.90;;;9.90;99.90;;;;;;4971242;28;20069;-76
2023/11/23 07:01:17;;;;;;;15.93;7.18;;;10.00;99.90;;;;;;4971564;28;20122;-76
2023/11/23 07:03:43;;;;;;;6.63;3.20;;;10.00;99.90;;;;;;4968193;28;20105;-70
2023/11/23 07:06:10;;;;;;;5.47;2.85;;;11.90;99.90;;;;;;4970167;28;20027;-73
2023/11/23 07:08:36;;;;;;;9.13;2.65;;;13.70;99.90;;;;;;4970560;28;20086;-72
2023/11/23 07:11:04;;;;;;;5.03;3.15;;;14.50;99.90;;;;;;4971903;28;20043;-69
2023/11/23 07:13:39;;;;;;;6.68;3.38;;;14.70;99.90;;;;;;4971891;28;20061;-76
2023/11/23 07:16:04;;;;;;;6.30;4.03;;;13.70;99.90;;;;;;4970359;28;20037;-76
2023/11/23 07:18:30;;;;;;;6.65;4.45;;;12.20;99.90;;;;;;4972510;28;20023;-76
2023/11/23 07:20:56;;;;;;;7.13;4.60;;;11.40;99.90;;;;;;4971005;28;20046;-77
2023/11/23 07:23:23;;;;;;;11.45;5.20;;;11.00;99.90;;;;;;4972056;28;20546;-76
2023/11/23 07:25:49;;;;;;;8.70;5.30;;;10.80;99.90;;;;;;4971397;28;20065;-75
2023/11/23 07:28:15;;;;;;;9.38;5.38;;;10.60;99.90;;;;;;4969102;28;20055;-77
2023/11/23 07:30:41;;;;;;;10.35;6.15;;;10.60;99.90;;;;;;4967859;28;20023;-77
2023/11/23 07:33:08;;;;;;;15.25;6.82;;;10.50;99.90;;;;;;4970889;28;20019;-78
2023/11/23 07:35:34;;;;;;;14.20;7.05;;;10.50;99.90;;;;;;4972788;28;20027;-78
2023/11/23 07:38:01;;;;;;;13.98;6.60;;;10.40;99.90;;;;;;4971353;28;20389;-78
2023/11/23 07:40:26;;;;;;;12.40;7.05;;;10.40;99.90;;;;;;4971692;28;20092;-77
2023/11/23 07:42:52;;;;;;;12.68;6.68;;;10.40;99.90;;;;;;4971253;28;20031;-78
2023/11/23 07:45:18;;;;;;;10.95;6.07;;;10.40;99.90;;;;;;4970719;28;20023;-78
2023/11/23 07:47:43;;;;;;;12.25;7.78;;;10.40;99.90;;;;;;4971925;28;20027;-78
2023/11/23 07:50:16;;;;;;;12.35;7.47;;;10.40;99.90;;;;;;4969300;28;20535;-78
2023/11/23 07:52:47;;;;;;;14.80;7.72;;;10.40;99.90;;;;;;4967493;28;20042;-78
2023/11/23 07:55:15;;;;;;;12.07;7.93;;;10.40;99.90;;;;;;4971888;28;20018;-78
2023/11/23 07:57:48;;;;;;;16.83;6.68;;;10.40;99.90;;;;;;4971457;28;20035;-78
2023/11/23 08:00:14;;;;;;;15.18;8.85;;;10.40;99.90;;;;;;4971086;28;20090;-78
2023/11/23 08:02:40;;;;;;;15.13;8.20;;;10.50;99.90;;;;;;4972694;28;20117;-78
2023/11/23 08:05:08;;;;;;;15.65;8.60;;;10.50;99.90;;;;;;4965860;28;20784;-78
2023/11/23 08:07:34;;;;;;;14.18;8.13;;;10.50;99.90;;;;;;4968947;28;20050;-78
2023/11/23 08:10:00;;;;;;;16.40;8.35;;;10.50;99.90;;;;;;4969877;28;20209;-78
2023/11/23 08:12:25;;;;;;;14.23;8.52;;;10.50;99.90;;;;;;4967113;28;20027;-78
2023/11/23 08:14:51;;;;;;;15.85;8.18;;;10.50;99.90;;;;;;4970897;28;20023;-78
2023/11/23 08:17:17;;;;;;;15.35;8.85;;;10.50;99.90;;;;;;4971347;28;20020;-78
2023/11/23 08:19:43;;;;;;;17.85;9.05;;;10.50;99.90;;;;;;4965231;28;20030;-78
2023/11/23 08:22:12;;;;;;;16.67;8.93;;;10.60;99.90;;;;;;4968020;28;20057;-78
2023/11/23 08:24:38;;;;;;;16.60;9.43;;;10.60;99.90;;;;;;4971446;28;20031;-78
2023/11/23 08:27:04;;;;;;;13.23;7.65;;;10.60;99.90;;;;;;4968441;28;20147;-78
2023/11/23 08:29:30;;;;;;;19.60;9.25;;;10.60;99.90;;;;;;4965324;28;20023;-78
2023/11/23 08:31:57;;;;;;;15.10;8.98;;;10.60;99.90;;;;;;4968371;28;20432;-78
2023/11/23 08:34:22;;;;;;;15.40;8.45;;;10.60;99.90;;;;;;4945568;28;20049;-78
2023/11/23 08:36:48;;;;;;;15.75;9.02;;;10.60;99.90;;;;;;4969694;28;20476;-78
2023/11/23 08:39:13;;;;;;;15.63;8.63;;;10.60;99.90;;;;;;4970153;28;20511;-78
2023/11/23 08:41:39;;;;;;;14.48;8.80;;;10.60;99.90;;;;;;4962760;28;20480;-78
2023/11/23 08:44:05;;;;;;;13.25;8.70;;;10.60;99.90;;;;;;4964003;28;20425;-78
2023/11/23 08:46:33;;;;;;;16.55;8.98;;;10.70;99.90;;;;;;4970421;28;20031;-78
2023/11/23 08:49:02;;;;;;;14.43;8.60;;;10.70;99.90;;;;;;4967896;28;20027;-78
2023/11/23 08:51:29;;;;;;;19.25;9.73;;;10.70;99.90;;;;;;4971522;28;20019;-78
2023/11/23 08:53:55;;;;;;;16.10;8.88;;;10.70;99.90;;;;;;4969611;28;20418;-78
2023/11/23 08:56:21;;;;;;;16.65;9.05;;;10.70;99.90;;;;;;4972593;28;20031;-78
2023/11/23 08:58:48;;;;;;;14.70;8.50;;;10.70;99.90;;;;;;4969404;28;20126;-78
2023/11/23 09:01:14;;;;;;;13.25;8.57;;;10.70;99.90;;;;;;4969791;28;20026;-78
2023/11/23 09:03:40;;;;;;;14.13;8.73;;;10.70;99.90;;;;;;4970775;28;20054;-78
2023/11/23 09:06:08;;;;;;;15.75;8.07;;;10.70;99.90;;;;;;4970071;28;20436;-78
2023/11/23 09:08:33;;;;;;;14.45;7.72;;;10.70;99.90;;;;;;4969089;28;20031;-78
2023/11/23 09:10:59;;;;;;;13.27;8.18;;;10.70;99.90;;;;;;4972167;28;20034;-78
2023/11/23 09:13:25;;;;;;;12.93;7.65;;;10.70;99.90;;;;;;4971733;28;20507;-78
2023/11/23 09:15:55;;;;;;;12.73;7.68;;;10.70;99.90;;;;;;4971562;28;20102;-78
2023/11/23 09:18:21;;;;;;;15.88;7.43;;;10.70;99.90;;;;;;4971974;28;20109;-78
2023/11/23 09:20:47;;;;;;;13.50;7.97;;;10.70;99.90;;;;;;4967823;28;20110;-78
2023/11/23 09:23:15;;;;;;;10.57;6.57;;;10.70;99.90;;;;;;4968894;28;20038;-77
2023/11/23 09:25:40;;;;;;;11.07;7.25;;;10.70;99.90;;;;;;4969084;28;20025;-78
2023/11/23 09:28:06;;;;;;;10.45;6.43;;;10.80;99.90;;;;;;4970435;28;20027;-77
2023/11/23 09:30:31;;;;;;;15.95;6.93;;;10.70;99.90;;;;;;4968104;28;20026;-78
2023/11/23 09:32:57;;;;;;;13.35;7.20;;;10.70;99.90;;;;;;4971757;28;20034;-79
2023/11/23 09:35:23;;;;;;;10.38;6.85;;;10.70;99.90;;;;;;4963173;28;20042;-79
2023/11/23 09:37:53;;;;;;;14.45;6.80;;;10.70;99.90;;;;;;4968004;28;20019;-79
2023/11/23 09:40:19;;;;;;;11.55;6.97;;;10.70;99.90;;;;;;4971819;28;20150;-79
2023/11/23 09:42:47;;;;;;;10.10;5.90;;;10.60;99.90;;;;;;4961572;28;20022;-78
2023/11/23 09:45:17;;;;;;;11.77;6.57;;;10.60;99.90;;;;;;4959383;28;20048;-78
2023/11/23 09:47:43;;;;;;;13.90;6.22;;;10.60;99.90;;;;;;4957985;28;20079;-77
2023/11/23 09:50:09;;;;;;;9.85;6.05;;;10.60;99.90;;;;;;4969766;28;20401;-79
2023/11/23 09:52:36;;;;;;;9.68;5.75;;;10.60;99.90;;;;;;4971019;28;20019;-77
2023/11/23 09:55:07;;;;;;;9.48;5.93;;;10.60;99.90;;;;;;4967604;28;20030;-78
2023/11/23 09:57:32;;;;;;;;;;;10.60;99.90;;;;;;4965604;28;20029;-78
2023/11/23 09:59:58;;;;;;;9.93;5.50;;;10.60;99.90;;;;;;4966006;28;19910;-78
2023/11/23 10:02:24;;;;;;;10.63;5.28;;;10.60;99.90;;;;;;4971586;28;20042;-78
2023/11/23 10:04:52;;;;;;;11.20;6.18;;;10.60;99.90;;;;;;4967743;28;20570;-78
2023/11/23 10:07:19;;;;;;;8.32;5.45;;;10.60;99.90;;;;;;4968001;28;20053;-79
2023/11/23 10:09:46;;;;;;;8.85;5.13;;;10.60;99.90;;;;;;4968172;28;20419;-78
2023/11/23 10:12:13;;;;;;;9.32;5.30;;;10.60;99.90;;;;;;4965809;28;20023;-78
2023/11/23 10:14:42;;;;;;;9.68;4.55;;;10.60;99.90;;;;;;4966425;28;20030;-78
2023/11/23 10:17:07;;;;;;;8.30;4.65;;;10.60;99.90;;;;;;4970017;28;20435;-78
2023/11/23 10:19:33;;;;;;;9.02;5.43;;;10.60;99.90;;;;;;4962714;28;20031;-78
2023/11/23 10:21:59;;;;;;;7.63;4.85;;;10.60;99.90;;;;;;4968904;28;20022;-78
2023/11/23 10:24:25;;;;;;;9.15;5.38;;;10.60;99.90;;;;;;4966060;28;20030;-78
2023/11/23 10:26:52;;;;;;;10.00;4.85;;;10.60;99.90;;;;;;4968642;28;20557;-78
2023/11/23 10:29:18;;;;;;;8.52;5.20;;;10.60;99.90;;;;;;4969234;28;20034;-78
2023/11/23 10:31:44;;;;;;;7.72;4.55;;;10.60;99.90;;;;;;4964116;28;20019;-78
2023/11/23 10:34:11;;;;;;;8.40;4.82;;;10.60;99.90;;;;;;4966010;28;20121;-78
2023/11/23 10:36:40;;;;;;;10.57;5.13;;;10.60;99.90;;;;;;4967604;28;20592;-78
2023/11/23 10:39:11;;;;;;;8.27;4.88;;;10.60;99.90;;;;;;4967100;28;20031;-78
2023/11/23 10:41:41;;;;;;;7.25;4.22;;;10.60;99.90;;;;;;4967571;28;20072;-78
2023/11/23 10:44:07;;;;;;;9.85;5.57;;;10.60;99.90;;;;;;4966688;28;20085;-78
2023/11/23 10:46:38;;;;;;;14.05;5.35;;;10.60;99.90;;;;;;4967950;28;20106;-78
2023/11/23 10:49:06;;;;;;;9.93;4.88;;;10.60;99.90;;;;;;4970782;28;20445;-78
2023/11/23 10:51:32;;;;;;;9.82;5.25;;;10.60;99.90;;;;;;4970749;28;20031;-78
2023/11/23 10:53:58;;;;;;;8.38;5.40;;;10.60;99.90;;;;;;4973000;28;20022;-78
2023/11/23 10:56:27;;;;;;;8.07;5.20;;;10.60;99.90;;;;;;4963921;28;20021;-78
2023/11/23 10:58:58;;;;;;;9.75;5.05;;;10.60;99.90;;;;;;4961366;28;20031;-78
2023/11/23 11:01:26;;;;;;;9.70;5.22;;;10.60;99.90;;;;;;4966234;28;20042;-79
2023/11/23 11:03:52;;;;;;;9.18;5.25;;;10.60;99.90;;;;;;4970340;28;20492;-78
2023/11/23 11:06:21;;;;;;;8.38;4.43;;;10.60;99.90;;;;;;4972727;28;20023;-78
2023/11/23 11:08:48;;;;;;;10.20;4.78;;;10.60;99.90;;;;;;4972109;28;20027;-78
2023/11/23 11:11:20;;;;;;;6.85;4.78;;;10.60;99.90;;;;;;4967016;28;20395;-78
2023/11/23 11:13:46;;;;;;;9.80;5.32;;;10.60;99.90;;;;;;4972480;28;20511;-79
2023/11/23 11:16:14;;;;;;;8.48;4.60;;;10.60;99.90;;;;;;4970229;28;20023;-79
2023/11/23 11:18:48;;;;;;;8.73;4.60;;;10.60;99.90;;;;;;4971449;28;20484;-79
2023/11/23 11:21:18;;;;;;;12.23;5.03;;;10.60;99.90;;;;;;4966053;28;20022;-78
2023/11/23 11:23:46;;;;;;;9.02;5.03;;;10.60;99.90;;;;;;4966806;28;20085;-78
2023/11/23 11:26:25;;;;;;;12.60;5.30;;;10.70;99.90;;;;;;4970219;28;20019;-79
2023/11/23 11:29:02;;;;;;;6.27;4.57;;;10.70;99.90;;;;;;4977321;28;20110;-78
2023/11/23 11:31:39;;;;;;;8.55;4.97;;;10.70;99.90;;;;;;4969647;28;20024;-78
2023/11/23 11:34:12;;;;;;;8.40;5.22;;;10.70;99.90;;;;;;4962987;28;20026;-78
2023/11/23 11:36:38;;;;;;;6.97;4.00;;;10.80;99.90;;;;;;4968087;28;20015;-78
2023/11/23 11:39:06;;;;;;;7.35;4.35;;;10.70;99.90;;;;;;4967946;28;20047;-78
2023/11/23 11:41:36;;;;;;;6.90;4.43;;;10.60;99.90;;;;;;4960739;28;20113;-77
2023/11/23 11:44:04;;;;;;;9.55;4.80;;;10.50;99.90;;;;;;4972501;28;20050;-78
2023/11/23 11:46:30;;;;;;;7.40;4.63;;;10.40;99.90;;;;;;4969563;28;20018;-78
2023/11/23 11:48:59;;;;;;;8.43;4.57;;;10.30;99.90;;;;;;4967360;28;20042;-78
2023/11/23 11:51:25;;;;;;;8.48;4.88;;;10.30;99.90;;;;;;4967766;28;20019;-78
2023/11/23 11:53:53;;;;;;;6.45;3.83;;;10.30;99.90;;;;;;4970763;28;20019;-78
2023/11/23 11:56:19;;;;;;;5.20;3.38;;;10.30;99.90;;;;;;4970043;28;20026;-78
2023/11/23 11:58:47;;;;;;;5.75;3.38;;;10.20;99.90;;;;;;4963694;28;20027;-78
2023/11/23 12:01:13;;;;;;;7.43;4.13;;;10.20;99.90;;;;;;4965774;28;20023;-78
2023/11/23 12:03:39;;;;;;;6.43;3.50;;;10.20;99.90;;;;;;4969259;28;20038;-78
2023/11/23 12:06:05;;;;;;;7.40;3.40;;;10.10;99.90;;;;;;4968841;28;20029;-78
2023/11/23 12:08:37;;;;;;;7.82;4.20;;;10.20;99.90;;;;;;4972970;28;20030;-78
2023/11/23 12:11:05;;;;;;;6.75;3.40;;;10.10;99.90;;;;;;4975570;28;20050;-78
2023/11/23 12:13:32;;;;;;;10.45;3.08;;;10.10;99.90;;;;;;4970559;28;20026;-78
2023/11/23 12:16:01;;;;;;;4.63;3.22;;;10.10;99.90;;;;;;4971992;28;20011;-78
2023/11/23 12:18:35;;;;;;;5.43;2.97;;;10.10;99.90;;;;;;4971582;28;20050;-78
2023/11/23 12:21:01;;;;;;;6.80;3.97;;;10.10;99.90;;;;;;4969414;28;20027;-78
2023/11/23 12:23:27;;;;;;;7.88;3.50;;;10.00;99.90;;;;;;4970329;28;20109;-79
2023/11/23 12:25:53;;;;;;;4.97;2.88;;;10.00;99.90;;;;;;4973988;28;20094;-78
2023/11/23 12:28:20;;;;;;;7.43;3.20;;;10.00;99.90;;;;;;4970531;28;20029;-77
2023/11/23 12:30:47;;;;;;;5.00;2.75;;;10.00;99.90;;;;;;4971033;28;20031;-78
2023/11/23 12:33:13;;;;;;;4.13;2.67;;;10.00;99.90;;;;;;4971515;28;20150;-78
2023/11/23 12:35:39;;;;;;;4.70;2.70;;;10.10;99.90;;;;;;4974949;28;20023;-78